Dongji Aiport


Codes: ZYFY/FYJ
Name: Dongji Aiport
City: Fuyuan
Country: China
Elevation: 0 ft.

Photos at Dongji Aiport


   Photos courtesy of SpottingLog. You can add your own sightings and photos by signing up for a free trial today.



No photos found.

Weather at Dongji Aiport


Time (UTC)DescriptionTempratureWindCloud coverageVisibilityPressureHumidity
15-Apr-2024 18:00Overcast Clouds13°C7 mph, S98%10000m1005hPa51%
15-Apr-2024 21:00Overcast Clouds13°C2 mph, SE99%10000m1005hPa52%
16-Apr-2024 00:00Overcast Clouds16°C16 mph, S99%10000m1006hPa41%
16-Apr-2024 03:00Light Rain14°C13 mph, SW100%10000m1004hPa62%
16-Apr-2024 06:00Light Rain13°C9 mph, SW100%10000m1003hPa72%
16-Apr-2024 09:00Light Rain12°C2 mph, E100%10000m1003hPa83%
16-Apr-2024 12:00Overcast Clouds12°C2 mph, E100%10000m1004hPa82%
16-Apr-2024 15:00Light Rain12°C2 mph, S100%10000m1004hPa87%
16-Apr-2024 18:00Light Rain11°C4 mph, S100%10000m1004hPa93%
16-Apr-2024 21:00Light Rain10°C4 mph, S100%10000m1005hPa98%
17-Apr-2024 00:00Light Rain10°C7 mph, S100%10000m1007hPa92%
17-Apr-2024 03:00Light Rain11°C7 mph, S100%10000m1008hPa81%
17-Apr-2024 06:00Overcast Clouds14°C7 mph, SW100%10000m1007hPa67%
17-Apr-2024 09:00Overcast Clouds12°C4 mph, W100%10000m1008hPa76%
17-Apr-2024 12:00Overcast Clouds10°C2 mph, N99%10000m1009hPa88%
17-Apr-2024 15:00Overcast Clouds9°C9 mph, NE100%10000m1009hPa84%
17-Apr-2024 18:00Overcast Clouds8°C7 mph, NE100%10000m1008hPa88%
17-Apr-2024 21:00Overcast Clouds7°C9 mph, NE100%10000m1009hPa91%
18-Apr-2024 00:00Overcast Clouds7°C9 mph, NE100%10000m1009hPa85%
18-Apr-2024 03:00Overcast Clouds9°C9 mph, NE100%10000m1008hPa79%
18-Apr-2024 06:00Overcast Clouds12°C9 mph, NE99%10000m1007hPa67%
18-Apr-2024 09:00Overcast Clouds9°C16 mph, NE100%10000m1007hPa78%
18-Apr-2024 12:00Overcast Clouds6°C13 mph, NE100%10000m1008hPa85%
18-Apr-2024 15:00Light Rain4°C11 mph, N100%10000m1009hPa90%
18-Apr-2024 18:00Light Rain4°C11 mph, NE100%10000m1010hPa89%
18-Apr-2024 21:00Overcast Clouds4°C9 mph, N100%10000m1012hPa88%
19-Apr-2024 00:00Overcast Clouds4°C11 mph, NE100%10000m1012hPa84%
19-Apr-2024 03:00Overcast Clouds5°C7 mph, NE100%10000m1012hPa81%
19-Apr-2024 06:00Overcast Clouds5°C11 mph, NE100%10000m1011hPa77%
19-Apr-2024 09:00Overcast Clouds5°C11 mph, NE94%10000m1011hPa77%
19-Apr-2024 12:00Overcast Clouds3°C9 mph, NE92%10000m1012hPa91%
19-Apr-2024 15:00Overcast Clouds3°C9 mph, NE89%10000m1011hPa94%
19-Apr-2024 18:00Overcast Clouds3°C7 mph, N94%0m1011hPa96%
19-Apr-2024 21:00Overcast Clouds3°C7 mph, N100%0m1012hPa96%
20-Apr-2024 00:00Overcast Clouds3°C7 mph, NE100%71m1013hPa95%
20-Apr-2024 03:00Light Snow4°C9 mph, NE100%4791m1013hPa85%
20-Apr-2024 06:00Overcast Clouds5°C7 mph, E100%10000m1013hPa74%
20-Apr-2024 09:00Overcast Clouds4°C4 mph, E100%10000m1013hPa82%
20-Apr-2024 12:00Light Rain3°C4 mph, NE100%115m1014hPa96%
20-Apr-2024 15:00Light Snow2°C4 mph, NE100%93m1014hPa98%